Time;durP1;ratioP1;P1;durP2;ratioP2;P2;SDS_P1;SDS_P2;PMS_P1;PMS_P2;Temp;Humidity;BMP_temperature;BMP_pressure;BME280_temperature;BME280_humidity;BME280_pressure;Samples;Min_cycle;Max_cycle;Signal;HPM_P1;HPM_P2
2023/12/29 08:00:11;;;;;;;1999.90;999.90;;;7.20;99.90;;;;;;5062735;28;20387;-78
2023/12/29 08:02:36;;;;;;;1999.90;999.90;;;6.80;99.90;;;;;;5046738;28;20037;-77
2023/12/29 08:05:02;;;;;;;1999.90;999.90;;;6.80;99.90;;;;;;5050648;28;20029;-79
2023/12/29 08:07:28;;;;;;;1999.90;999.90;;;7.00;99.90;;;;;;5049701;28;20040;-78
2023/12/29 08:09:53;;;;;;;1999.90;999.90;;;7.10;99.90;;;;;;5039786;28;20022;-77
2023/12/29 08:12:19;;;;;;;1999.90;999.90;;;7.30;99.90;;;;;;5036853;28;20396;-78
2023/12/29 08:14:44;;;;;;;1999.90;999.90;;;7.50;99.90;;;;;;5034495;28;20025;-78
2023/12/29 08:17:11;;;;;;;1999.90;999.90;;;7.70;99.90;;;;;;5035279;28;20028;-78
2023/12/29 08:19:36;;;;;;;1999.90;999.90;;;7.90;99.90;;;;;;5045048;28;20100;-77
2023/12/29 08:22:02;;;;;;;1999.90;999.90;;;8.10;99.90;;;;;;5040307;28;20052;-78
2023/12/29 08:24:28;;;;;;;1999.90;999.90;;;8.20;99.90;;;;;;5029499;28;20030;-76
2023/12/29 08:26:54;;;;;;;1999.90;999.90;;;8.30;99.90;;;;;;5029974;28;20026;-76
2023/12/29 08:29:19;;;;;;;1999.90;999.90;;;8.30;99.90;;;;;;5040701;28;20519;-78
2023/12/29 08:31:45;;;;;;;1999.90;999.90;;;8.30;99.90;;;;;;5034767;28;20412;-78
2023/12/29 08:34:12;;;;;;;1999.90;999.90;;;8.20;99.90;;;;;;5049256;28;20033;-78
2023/12/29 08:36:37;;;;;;;1999.90;999.90;;;7.90;99.90;;;;;;5048483;28;20025;-76
2023/12/29 08:39:03;;;;;;;1999.90;999.90;;;7.80;99.90;;;;;;5048458;28;20556;-78
2023/12/29 08:41:29;;;;;;;1999.90;999.90;;;7.80;99.90;;;;;;5048159;28;20024;-77
2023/12/29 08:43:54;;;;;;;1999.90;999.90;;;7.90;99.90;;;;;;5029025;28;20113;-76
2023/12/29 08:46:20;;;;;;;1999.90;999.90;;;8.00;99.90;;;;;;5041657;28;20475;-76
2023/12/29 08:48:46;;;;;;;1999.90;999.90;;;8.00;99.90;;;;;;5048792;28;20098;-76
2023/12/29 08:51:12;;;;;;;1999.90;999.90;;;8.10;99.90;;;;;;5033350;28;20025;-78
2023/12/29 08:53:38;;;;;;;1999.90;999.90;;;8.30;99.90;;;;;;5048617;28;20025;-76
2023/12/29 08:56:04;;;;;;;1999.90;999.90;;;8.60;99.90;;;;;;5047184;28;20452;-78
2023/12/29 08:58:32;;;;;;;1999.90;999.90;;;8.70;99.90;;;;;;5046517;28;20057;-77
2023/12/29 09:00:57;;;;;;;1999.90;999.90;;;8.90;99.90;;;;;;5048439;28;20041;-77
2023/12/29 09:03:23;;;;;;;1999.90;999.90;;;8.80;99.90;;;;;;5048746;28;20025;-76
2023/12/29 09:05:49;;;;;;;1999.90;999.90;;;8.80;99.90;;;;;;5041422;28;20022;-77
2023/12/29 09:08:14;;;;;;;1999.90;999.90;;;8.80;99.90;;;;;;5032975;28;20025;-77
2023/12/29 09:10:40;;;;;;;1999.90;999.90;;;8.90;99.90;;;;;;5039050;28;20473;-78
2023/12/29 09:13:06;;;;;;;1999.90;999.90;;;8.90;99.90;;;;;;5033935;28;20030;-76
2023/12/29 09:15:32;;;;;;;1999.90;999.90;;;9.00;99.90;;;;;;5035282;28;20032;-76
2023/12/29 09:17:57;;;;;;;1999.90;999.90;;;9.20;99.90;;;;;;5034971;28;20056;-78
2023/12/29 09:20:23;;;;;;;1999.90;999.90;;;9.30;99.90;;;;;;5029471;28;20037;-78
2023/12/29 09:22:49;;;;;;;1999.90;999.90;;;9.50;99.90;;;;;;5028983;28;20194;-78
2023/12/29 09:25:15;;;;;;;1999.90;999.90;;;9.80;99.90;;;;;;5016903;28;20022;-78
2023/12/29 09:27:41;;;;;;;1999.90;999.90;;;10.00;99.90;;;;;;5015400;28;20028;-78
2023/12/29 09:30:07;;;;;;;1999.90;999.90;;;10.10;99.90;;;;;;5015424;28;20392;-78
2023/12/29 09:32:33;;;;;;;1999.90;999.90;;;10.10;99.90;;;;;;5028374;28;20063;-77
2023/12/29 09:34:58;;;;;;;1999.90;999.90;;;10.20;99.90;;;;;;5033565;28;20059;-75
2023/12/29 09:37:24;;;;;;;1999.90;999.90;;;10.20;99.90;;;;;;5033230;28;20374;-76
2023/12/29 09:39:49;;;;;;;1999.90;999.90;;;10.30;99.90;;;;;;5034148;28;20032;-77
2023/12/29 09:42:23;;;;;;;1999.90;999.90;;;10.40;99.90;;;;;;5033479;28;20060;-77
2023/12/29 09:44:53;;;;;;;1999.90;999.90;;;10.60;99.90;;;;;;5034729;28;20029;-77
2023/12/29 09:47:30;;;;;;;1999.90;999.90;;;10.80;99.90;;;;;;5034878;28;20369;-78
2023/12/29 09:49:55;;;;;;;1999.90;999.90;;;11.00;99.90;;;;;;5033141;28;20036;-77
2023/12/29 09:52:22;;;;;;;1999.90;999.90;;;11.30;99.90;;;;;;5034120;28;20495;-77
2023/12/29 09:54:52;;;;;;;1999.90;999.90;;;11.50;99.90;;;;;;5034141;28;20035;-77
2023/12/29 09:57:19;;;;;;;1999.90;999.90;;;11.70;99.90;;;;;;5025337;28;20409;-77
2023/12/29 09:59:45;;;;;;;1999.90;999.90;;;11.90;99.90;;;;;;5031256;28;20057;-77
2023/12/29 10:02:23;;;;;;;1999.90;999.90;;;11.90;99.90;;;;;;5034111;28;20037;-77
2023/12/29 10:04:49;;;;;;;1999.90;999.90;;;12.00;99.90;;;;;;5034200;28;20523;-76
2023/12/29 10:07:23;;;;;;;1999.90;999.90;;;12.10;99.90;;;;;;5032429;28;20017;-76
2023/12/29 10:09:52;;;;;;;1999.90;999.90;;;12.20;99.90;;;;;;5033945;28;20049;-77
2023/12/29 10:12:18;;;;;;;1999.90;999.90;;;12.30;99.90;;;;;;5034182;28;20021;-76
2023/12/29 10:15:05;;;;;;;1999.90;999.90;;;12.50;99.90;;;;;;5032578;28;20606;-77
2023/12/29 10:17:47;;;;;;;1999.90;999.90;;;12.50;99.90;;;;;;5034029;28;20500;-77
2023/12/29 10:20:28;;;;;;;1999.90;999.90;;;12.60;99.90;;;;;;5034093;28;20484;-77
2023/12/29 10:23:12;;;;;;;1999.90;999.90;;;12.70;99.90;;;;;;5032508;28;20018;-77
2023/12/29 10:25:38;;;;;;;1999.90;999.90;;;12.80;99.90;;;;;;5033856;28;20428;-79
2023/12/29 10:28:06;;;;;;;1999.90;999.90;;;12.80;99.90;;;;;;5033578;28;20029;-78
2023/12/29 10:30:34;;;;;;;1999.90;999.90;;;12.80;99.90;;;;;;5033874;28;20453;-77
2023/12/29 10:33:00;;;;;;;1999.90;999.90;;;12.90;99.90;;;;;;5032338;28;20041;-77
2023/12/29 10:35:26;;;;;;;1999.90;999.90;;;13.00;99.90;;;;;;5033830;28;20025;-77
2023/12/29 10:37:52;;;;;;;1999.90;999.90;;;13.00;99.90;;;;;;5033257;28;20490;-77
2023/12/29 10:40:19;;;;;;;1999.90;999.90;;;13.00;99.90;;;;;;5033034;28;20026;-77
2023/12/29 10:43:05;;;;;;;1999.90;999.90;;;13.00;99.90;;;;;;5033497;28;20039;-78
2023/12/29 10:45:30;;;;;;;1999.90;999.90;;;13.10;99.90;;;;;;5033620;28;20491;-78
2023/12/29 10:47:56;;;;;;;1999.90;999.90;;;13.10;99.90;;;;;;5031708;28;20116;-78
2023/12/29 10:50:22;;;;;;;1999.90;999.90;;;13.10;99.90;;;;;;5033247;28;20408;-77
2023/12/29 10:52:48;;;;;;;1999.90;999.90;;;13.20;99.90;;;;;;5033196;28;20041;-78
2023/12/29 10:55:13;;;;;;;1999.90;999.90;;;13.20;99.90;;;;;;5033137;28;20060;-76
2023/12/29 10:57:40;;;;;;;1999.90;999.90;;;13.20;99.90;;;;;;5033042;28;20436;-77
2023/12/29 11:00:07;;;;;;;1999.90;999.90;;;13.40;99.90;;;;;;5032612;28;20345;-77
2023/12/29 11:02:34;;;;;;;1999.90;999.90;;;13.40;99.90;;;;;;5028632;28;20030;-77
2023/12/29 11:05:07;;;;;;;1999.90;999.90;;;13.40;99.90;;;;;;5013529;28;20101;-77
2023/12/29 11:07:33;;;;;;;;;;;13.50;99.90;;;;;;5029134;28;20072;-77
2023/12/29 11:10:09;;;;;;;1999.90;999.90;;;13.40;99.90;;;;;;5025227;28;19909;-78
2023/12/29 11:12:36;;;;;;;1999.90;999.90;;;13.40;99.90;;;;;;5033208;28;20167;-78
2023/12/29 11:15:06;;;;;;;1999.90;999.90;;;13.40;99.90;;;;;;5032942;28;20073;-78
2023/12/29 11:17:34;;;;;;;1999.90;999.90;;;13.50;99.90;;;;;;5033016;28;20094;-78
2023/12/29 11:20:01;;;;;;;1999.90;999.90;;;13.60;99.90;;;;;;5032897;28;20117;-78
2023/12/29 11:22:31;;;;;;;1999.90;999.90;;;13.60;99.90;;;;;;5032887;28;20029;-77
2023/12/29 11:24:59;;;;;;;1999.90;999.90;;;13.60;99.90;;;;;;5033069;28;20029;-77
2023/12/29 11:27:29;;;;;;;1999.90;999.90;;;13.50;99.90;;;;;;5033089;28;20024;-76
2023/12/29 11:29:57;;;;;;;1999.90;999.90;;;13.50;99.90;;;;;;5032126;28;20484;-77
2023/12/29 11:32:41;;;;;;;1999.90;999.90;;;13.60;99.90;;;;;;5032769;28;20090;-78
2023/12/29 11:35:23;;;;;;;1999.90;999.90;;;13.70;99.90;;;;;;5032777;28;20041;-77
2023/12/29 11:38:10;;;;;;;1999.90;999.90;;;13.80;99.90;;;;;;5012854;28;20014;-78
2023/12/29 11:40:49;;;;;;;1999.90;999.90;;;13.80;99.90;;;;;;5013067;28;20026;-80
2023/12/29 14:16:30;;;;;;;1999.90;999.90;;;14.30;99.90;;;;;;5082460;28;20476;-77
2023/12/29 14:18:57;;;;;;;1999.90;999.90;;;14.10;99.90;;;;;;5067480;28;20044;-78
2023/12/29 14:21:33;;;;;;;1999.90;999.90;;;14.20;99.90;;;;;;5067607;28;20021;-78
2023/12/29 14:24:17;;;;;;;1999.90;999.90;;;14.40;99.90;;;;;;5042555;28;20120;-78
2023/12/29 14:27:04;;;;;;;1999.90;999.90;;;14.30;99.90;;;;;;5062014;28;20024;-77
2023/12/29 14:29:41;;;;;;;1999.90;999.90;;;14.20;99.90;;;;;;5070338;28;20017;-75
2023/12/29 14:32:07;;;;;;;1999.90;999.90;;;14.00;99.90;;;;;;5061503;28;20114;-77
2023/12/29 14:34:32;;;;;;;1999.90;999.90;;;13.70;99.90;;;;;;5069114;28;20506;-77
2023/12/29 14:36:58;;;;;;;1999.90;999.90;;;13.50;99.90;;;;;;5069343;28;20043;-79
2023/12/29 14:39:23;;;;;;;1999.90;999.90;;;13.50;99.90;;;;;;5069202;28;20108;-77
2023/12/29 14:41:49;;;;;;;1999.90;999.90;;;13.60;99.90;;;;;;5069857;28;20100;-77
2023/12/29 14:44:15;;;;;;;1999.90;999.90;;;13.50;99.90;;;;;;5069452;28;20396;-77
2023/12/29 14:46:40;;;;;;;1999.90;999.90;;;13.40;99.90;;;;;;5069608;28;20013;-76
2023/12/29 14:49:07;;;;;;;1999.90;999.90;;;13.30;99.90;;;;;;5051169;28;20432;-77
2023/12/29 14:51:32;;;;;;;1999.90;999.90;;;13.10;99.90;;;;;;5069361;28;20104;-77
2023/12/29 14:53:58;;;;;;;1999.90;999.90;;;13.10;99.90;;;;;;5069157;28;20063;-77
2023/12/29 14:56:24;;;;;;;1999.90;999.90;;;13.00;99.90;;;;;;5051250;28;20064;-77
2023/12/29 14:58:49;;;;;;;1999.90;999.90;;;13.10;99.90;;;;;;5069230;28;20025;-78
2023/12/29 15:01:16;;;;;;;1999.90;999.90;;;13.30;99.90;;;;;;5069047;28;20013;-77
2023/12/29 15:03:42;;;;;;;1999.90;999.90;;;13.30;99.90;;;;;;5069239;28;20036;-78
2023/12/29 15:06:08;;;;;;;1999.90;999.90;;;13.30;99.90;;;;;;5051018;28;20025;-77
2023/12/29 15:08:37;;;;;;;1999.90;999.90;;;13.30;99.90;;;;;;5068804;28;20029;-76
2023/12/29 15:11:04;;;;;;;1999.90;999.90;;;13.40;99.90;;;;;;5067336;28;20082;-77
2023/12/29 15:13:30;;;;;;;1999.90;999.90;;;13.40;99.90;;;;;;5068772;28;20029;-77
2023/12/29 15:15:59;;;;;;;1999.90;999.90;;;13.30;99.90;;;;;;5068408;28;20411;-77
2023/12/29 15:18:27;;;;;;;1999.90;999.90;;;13.30;99.90;;;;;;5068125;28;20036;-77
2023/12/29 15:20:53;;;;;;;1999.90;999.90;;;13.30;99.90;;;;;;5068513;28;20047;-77
2023/12/29 15:23:19;;;;;;;1999.90;999.90;;;13.30;99.90;;;;;;5060868;28;20060;-77
2023/12/29 15:25:44;;;;;;;1999.90;999.90;;;13.20;99.90;;;;;;5037803;28;20059;-77
2023/12/29 15:28:10;;;;;;;1999.90;999.90;;;13.20;99.90;;;;;;5055102;28;20051;-77
2023/12/29 15:30:35;;;;;;;1999.90;999.90;;;13.10;99.90;;;;;;5055163;28;20037;-77
2023/12/29 15:33:01;;;;;;;1999.90;999.90;;;13.10;99.90;;;;;;5055170;28;20053;-77
2023/12/29 15:35:27;;;;;;;1999.90;999.90;;;13.10;99.90;;;;;;5054945;28;20060;-77
2023/12/29 15:37:55;;;;;;;1999.90;999.90;;;13.00;99.90;;;;;;5055155;28;20104;-77
2023/12/29 15:40:20;;;;;;;1999.90;999.90;;;13.00;99.90;;;;;;5055131;28;20025;-77
2023/12/29 15:42:46;;;;;;;1999.90;999.90;;;12.90;99.90;;;;;;5036962;28;20120;-77
2023/12/29 15:45:13;;;;;;;1999.90;999.90;;;12.80;99.90;;;;;;5055144;28;20171;-77
2023/12/29 15:47:38;;;;;;;1999.90;999.90;;;12.80;99.90;;;;;;5055122;28;20017;-77
2023/12/29 15:50:05;;;;;;;1999.90;999.90;;;12.70;99.90;;;;;;5054895;28;20093;-77
2023/12/29 15:52:30;;;;;;;1999.90;999.90;;;12.60;99.90;;;;;;5054661;28;20094;-77
2023/12/29 15:54:56;;;;;;;1999.90;999.90;;;12.60;99.90;;;;;;5054688;28;20524;-77
2023/12/29 15:57:22;;;;;;;1999.90;999.90;;;12.60;99.90;;;;;;5055038;28;20025;-77
2023/12/29 15:59:47;;;;;;;1999.90;999.90;;;12.60;99.90;;;;;;5054495;28;20020;-77
2023/12/29 16:02:13;;;;;;;1999.90;999.90;;;12.60;99.90;;;;;;5054898;28;20024;-77
2023/12/29 16:04:38;;;;;;;1999.90;999.90;;;12.60;99.90;;;;;;5054725;28;20036;-77
2023/12/29 16:07:04;;;;;;;1999.90;999.90;;;12.50;99.90;;;;;;5054076;28;20029;-77
2023/12/29 16:09:30;;;;;;;1999.90;999.90;;;12.40;99.90;;;;;;5054312;28;20036;-77
2023/12/29 16:11:56;;;;;;;1999.90;999.90;;;12.40;99.90;;;;;;5054802;28;20396;-77
2023/12/29 16:14:21;;;;;;;1999.90;999.90;;;12.30;99.90;;;;;;5054095;28;20450;-77
2023/12/29 16:16:47;;;;;;;1999.90;999.90;;;12.20;99.90;;;;;;5054374;28;20029;-77
2023/12/29 16:19:13;;;;;;;1999.90;999.90;;;12.20;99.90;;;;;;5054429;28;20028;-77
2023/12/29 16:21:39;;;;;;;1999.90;999.90;;;12.20;99.90;;;;;;5050813;28;20022;-77
2023/12/29 16:24:09;;;;;;;1999.90;999.90;;;12.20;99.90;;;;;;5045105;28;20022;-77
2023/12/29 16:26:36;;;;;;;1999.90;999.90;;;12.20;99.90;;;;;;5047838;28;20487;-77
2023/12/29 16:29:03;;;;;;;1999.90;999.90;;;12.30;99.90;;;;;;5054167;28;20107;-77
2023/12/29 16:31:28;;;;;;;1999.90;999.90;;;12.20;99.90;;;;;;5054199;28;20025;-77
2023/12/29 16:33:54;;;;;;;1999.90;999.90;;;12.10;99.90;;;;;;5054095;28;20075;-77
2023/12/29 16:36:20;;;;;;;1999.90;999.90;;;11.90;99.90;;;;;;5053689;28;20373;-76
2023/12/29 16:38:47;;;;;;;1999.90;999.90;;;11.80;99.90;;;;;;5052876;28;20147;-76
2023/12/29 16:41:13;;;;;;;1999.90;999.90;;;11.70;99.90;;;;;;5053456;28;20495;-77
2023/12/29 16:43:39;;;;;;;1999.90;999.90;;;11.70;99.90;;;;;;5035818;28;20108;-76
2023/12/29 16:46:05;;;;;;;1999.90;999.90;;;11.60;99.90;;;;;;5053734;28;20075;-76
2023/12/29 16:48:30;;;;;;;1999.90;999.90;;;11.60;99.90;;;;;;5053921;28;20108;-78
2023/12/29 16:50:56;;;;;;;1999.90;999.90;;;11.50;99.90;;;;;;5053526;28;20037;-77
2023/12/29 16:53:24;;;;;;;1999.90;999.90;;;11.40;99.90;;;;;;5053160;28;20040;-78
2023/12/29 16:55:50;;;;;;;1999.90;999.90;;;11.40;99.90;;;;;;5053658;28;20032;-78
2023/12/29 16:58:20;;;;;;;1999.90;999.90;;;11.40;99.90;;;;;;5054065;28;20017;-77
2023/12/29 17:00:46;;;;;;;1999.90;999.90;;;11.30;99.90;;;;;;5053403;28;20039;-77
2023/12/29 17:03:12;;;;;;;1999.90;999.90;;;11.30;99.90;;;;;;5053838;28;20021;-77
2023/12/29 17:05:38;;;;;;;1999.90;999.90;;;11.30;99.90;;;;;;5053390;28;20029;-78
2023/12/29 17:08:04;;;;;;;1999.90;999.90;;;11.20;99.90;;;;;;5035438;28;20031;-77
2023/12/29 17:10:29;;;;;;;1999.90;999.90;;;11.30;99.90;;;;;;5053151;28;20484;-78
2023/12/29 17:12:55;;;;;;;1999.90;999.90;;;11.20;99.90;;;;;;5053377;28;20021;-77
2023/12/29 17:15:21;;;;;;;1999.90;999.90;;;11.20;99.90;;;;;;5053161;28;20084;-77
2023/12/29 17:17:47;;;;;;;1999.90;999.90;;;11.20;99.90;;;;;;5053304;28;20021;-77
2023/12/29 17:20:12;;;;;;;1999.90;999.90;;;11.20;99.90;;;;;;5053127;28;20024;-77
2023/12/29 17:22:38;;;;;;;1999.90;999.90;;;11.20;99.90;;;;;;5045434;28;20086;-78
2023/12/29 17:25:04;;;;;;;1999.90;999.90;;;11.20;99.90;;;;;;5041891;28;20029;-77
2023/12/29 17:27:30;;;;;;;1999.90;999.90;;;11.10;99.90;;;;;;5052624;28;20025;-77
2023/12/29 17:29:56;;;;;;;1999.90;999.90;;;11.10;99.90;;;;;;5052729;28;20381;-77
2023/12/29 17:32:23;;;;;;;1999.90;999.90;;;11.20;99.90;;;;;;5053100;28;20029;-77
2023/12/29 17:34:49;;;;;;;1999.90;999.90;;;11.10;99.90;;;;;;5052810;28;20029;-76
2023/12/29 17:37:15;;;;;;;1999.90;999.90;;;11.20;99.90;;;;;;5052902;28;20031;-78
2023/12/29 17:39:40;;;;;;;1999.90;999.90;;;11.10;99.90;;;;;;5052933;28;20395;-76
2023/12/29 17:42:10;;;;;;;1999.90;999.90;;;11.10;99.90;;;;;;5052780;28;20102;-76
2023/12/29 17:44:39;;;;;;;1999.90;999.90;;;11.10;99.90;;;;;;5052737;28;20027;-78
2023/12/29 17:47:05;;;;;;;1999.90;999.90;;;11.00;99.90;;;;;;5052755;28;20032;-77
2023/12/29 17:49:30;;;;;;;1999.90;999.90;;;11.10;99.90;;;;;;5034741;28;20439;-76
2023/12/29 17:51:59;;;;;;;1999.90;999.90;;;11.10;99.90;;;;;;5052768;28;20021;-77
2023/12/29 17:54:25;;;;;;;1999.90;999.90;;;11.10;99.90;;;;;;5052943;28;20053;-76
2023/12/29 17:56:51;;;;;;;1999.90;999.90;;;11.10;99.90;;;;;;5052580;28;20025;-76
2023/12/29 17:59:19;;;;;;;1999.90;999.90;;;11.10;99.90;;;;;;5052930;28;20024;-76
2023/12/29 18:01:51;;;;;;;1999.90;999.90;;;11.10;99.90;;;;;;5052613;28;20372;-76
2023/12/29 18:04:17;;;;;;;1999.90;999.90;;;11.10;99.90;;;;;;5034723;28;20056;-77
2023/12/29 18:06:43;;;;;;;1999.90;999.90;;;11.20;99.90;;;;;;5052513;28;20049;-76
2023/12/29 18:09:13;;;;;;;1999.90;999.90;;;11.20;99.90;;;;;;5052468;28;20115;-76
2023/12/29 18:11:39;;;;;;;1999.90;999.90;;;11.30;99.90;;;;;;5052283;28;20068;-76
2023/12/29 18:14:05;;;;;;;1999.90;999.90;;;11.30;99.90;;;;;;5034228;28;20031;-76
2023/12/29 18:16:33;;;;;;;1999.90;999.90;;;11.40;99.90;;;;;;5034554;28;20037;-76
2023/12/29 18:19:00;;;;;;;1999.90;999.90;;;11.40;99.90;;;;;;5052411;28;20021;-76
2023/12/29 18:21:26;;;;;;;1999.90;999.90;;;11.40;99.90;;;;;;5050357;28;20390;-77
2023/12/29 18:23:51;;;;;;;1999.90;999.90;;;11.30;99.90;;;;;;5043848;28;20036;-77
2023/12/29 18:26:17;;;;;;;1999.90;999.90;;;11.30;99.90;;;;;;5025958;28;20082;-76
2023/12/29 18:28:43;;;;;;;1999.90;999.90;;;11.30;99.90;;;;;;5052259;28;20060;-77
2023/12/29 18:31:13;;;;;;;1999.90;999.90;;;11.30;99.90;;;;;;5052175;28;20056;-76
2023/12/29 18:33:42;;;;;;;1999.90;999.90;;;11.20;99.90;;;;;;5052433;28;20028;-76
2023/12/29 18:36:08;;;;;;;1999.90;999.90;;;11.10;99.90;;;;;;5052097;28;20097;-77
2023/12/29 18:38:34;;;;;;;1999.90;999.90;;;11.10;99.90;;;;;;5052049;28;20074;-76
2023/12/29 18:41:05;;;;;;;1999.90;999.90;;;11.10;99.90;;;;;;5052122;28;20136;-76
2023/12/29 18:43:30;;;;;;;1999.90;999.90;;;11.10;99.90;;;;;;5034258;28;20014;-76
2023/12/29 18:45:56;;;;;;;1999.90;999.90;;;11.10;99.90;;;;;;5052150;28;20032;-76
2023/12/29 18:48:22;;;;;;;1999.90;999.90;;;11.10;99.90;;;;;;5051880;28;20029;-76
2023/12/29 18:50:48;;;;;;;1999.90;999.90;;;11.10;99.90;;;;;;5051177;28;20029;-76
2023/12/29 18:53:14;;;;;;;1999.90;999.90;;;11.10;99.90;;;;;;5052349;28;20064;-76
2023/12/29 18:55:44;;;;;;;1999.90;999.90;;;11.10;99.90;;;;;;5033372;28;20024;-77
2023/12/29 18:58:10;;;;;;;1999.90;999.90;;;11.10;99.90;;;;;;5034251;28;20509;-76
2023/12/29 19:00:36;;;;;;;1999.90;999.90;;;11.10;99.90;;;;;;5052039;28;20441;-77
2023/12/29 19:03:02;;;;;;;1999.90;999.90;;;11.00;99.90;;;;;;5055158;28;20032;-77
2023/12/29 19:05:27;;;;;;;1999.90;999.90;;;11.00;99.90;;;;;;5056024;28;20032;-77
2023/12/29 19:07:53;;;;;;;1999.90;999.90;;;11.00;99.90;;;;;;5055600;28;20025;-76
2023/12/29 19:10:19;;;;;;;1999.90;999.90;;;11.00;99.90;;;;;;5055451;28;20036;-77
2023/12/29 19:12:47;;;;;;;1999.90;999.90;;;10.90;99.90;;;;;;5055625;28;20017;-76
2023/12/29 19:15:14;;;;;;;1999.90;999.90;;;10.90;99.90;;;;;;5055501;28;20057;-77
2023/12/29 19:17:40;;;;;;;1999.90;999.90;;;10.80;99.90;;;;;;5055770;28;20027;-77
2023/12/29 19:20:06;;;;;;;1999.90;999.90;;;10.80;99.90;;;;;;5033783;28;20467;-76
2023/12/29 19:22:36;;;;;;;1999.90;999.90;;;10.80;99.90;;;;;;5039017;28;20030;-76
2023/12/29 19:25:05;;;;;;;1999.90;999.90;;;10.80;99.90;;;;;;5044468;28;20125;-76
2023/12/29 19:27:31;;;;;;;1999.90;999.90;;;10.80;99.90;;;;;;5055568;28;20519;-77
2023/12/29 19:29:56;;;;;;;1999.90;999.90;;;10.80;99.90;;;;;;5055439;28;20025;-77
2023/12/29 19:32:22;;;;;;;1999.90;999.90;;;10.80;99.90;;;;;;5055288;28;20072;-76
2023/12/29 19:34:49;;;;;;;1999.90;999.90;;;10.90;99.90;;;;;;5055065;28;20025;-76
2023/12/29 19:37:14;;;;;;;1999.90;999.90;;;10.90;99.90;;;;;;5055084;28;20021;-77
2023/12/29 19:39:41;;;;;;;1999.90;999.90;;;10.90;99.90;;;;;;5055088;28;20022;-76
2023/12/29 19:42:07;;;;;;;1999.90;999.90;;;11.00;99.90;;;;;;5054984;28;20522;-76
2023/12/29 19:44:33;;;;;;;1999.90;999.90;;;11.00;99.90;;;;;;5054969;28;20052;-76
2023/12/29 19:46:59;;;;;;;1999.90;999.90;;;11.10;99.90;;;;;;5055017;28;20086;-76
2023/12/29 19:49:24;;;;;;;1999.90;999.90;;;11.10;99.90;;;;;;5053444;28;20029;-77
2023/12/29 19:51:50;;;;;;;1999.90;999.90;;;11.10;99.90;;;;;;5054821;28;20032;-76
2023/12/29 19:54:16;;;;;;;1999.90;999.90;;;11.10;99.90;;;;;;5054999;28;20021;-77
2023/12/29 19:56:41;;;;;;;1999.90;999.90;;;11.10;99.90;;;;;;5053667;28;20192;-77
2023/12/29 19:59:07;;;;;;;1999.90;999.90;;;11.10;99.90;;;;;;5054843;28;20025;-76
2023/12/29 20:01:34;;;;;;;1999.90;999.90;;;11.20;99.90;;;;;;5054802;28;20025;-76
2023/12/29 20:04:00;;;;;;;1999.90;999.90;;;11.10;99.90;;;;;;5054688;28;20024;-76
2023/12/29 20:06:26;;;;;;;1999.90;999.90;;;11.20;99.90;;;;;;5054656;28;20029;-76
2023/12/29 20:08:52;;;;;;;1999.90;999.90;;;11.30;99.90;;;;;;5053216;28;20032;-76
2023/12/29 20:11:18;;;;;;;1999.90;999.90;;;11.30;99.90;;;;;;5054298;28;20102;-77
2023/12/29 20:13:44;;;;;;;1999.90;999.90;;;11.30;99.90;;;;;;5054450;28;20033;-77
2023/12/29 20:16:19;;;;;;;1999.90;999.90;;;11.30;99.90;;;;;;5054351;28;20116;-76
2023/12/29 20:18:45;;;;;;;1999.90;999.90;;;11.40;99.90;;;;;;5054371;28;20510;-76
2023/12/29 20:21:20;;;;;;;1999.90;999.90;;;11.40;99.90;;;;;;5032762;28;20025;-77
2023/12/29 20:23:46;;;;;;;1999.90;999.90;;;11.40;99.90;;;;;;5027839;28;20075;-77
2023/12/29 20:26:18;;;;;;;1999.90;999.90;;;11.50;99.90;;;;;;5045053;28;20060;-76
2023/12/29 20:28:43;;;;;;;1999.90;999.90;;;11.60;99.90;;;;;;5054213;28;20036;-76
2023/12/29 20:31:19;;;;;;;1999.90;999.90;;;11.60;99.90;;;;;;5054346;28;20028;-76
2023/12/29 20:33:45;;;;;;;1999.90;999.90;;;11.60;99.90;;;;;;5054308;28;20048;-76
2023/12/29 20:36:10;;;;;;;1999.90;999.90;;;11.70;99.90;;;;;;5053779;28;20491;-77
2023/12/29 20:38:36;;;;;;;1999.90;999.90;;;11.70;99.90;;;;;;5053965;28;20029;-76
2023/12/29 20:41:01;;;;;;;1999.90;999.90;;;11.60;99.90;;;;;;5054393;28;20372;-76
2023/12/29 20:43:27;;;;;;;1999.90;999.90;;;11.60;99.90;;;;;;5054171;28;20025;-76
2023/12/29 20:45:53;;;;;;;1999.90;999.90;;;11.70;99.90;;;;;;5053889;28;20131;-77
2023/12/29 20:48:19;;;;;;;1999.90;999.90;;;11.70;99.90;;;;;;5053848;28;20510;-77
2023/12/29 20:50:44;;;;;;;1999.90;999.90;;;11.80;99.90;;;;;;5053613;28;20083;-76
2023/12/29 20:53:10;;;;;;;1999.90;999.90;;;11.80;99.90;;;;;;5054156;28;20373;-76
2023/12/29 20:55:36;;;;;;;1999.90;999.90;;;11.90;99.90;;;;;;5053482;28;20056;-76
2023/12/29 20:58:01;;;;;;;1999.90;999.90;;;11.90;99.90;;;;;;5053777;28;20036;-76
2023/12/29 21:00:27;;;;;;;1999.90;999.90;;;11.90;99.90;;;;;;5053660;28;20025;-76
2023/12/29 21:02:53;;;;;;;1999.90;999.90;;;11.90;99.90;;;;;;5053695;28;20108;-76
2023/12/29 21:05:18;;;;;;;1999.90;999.90;;;11.90;99.90;;;;;;5053740;28;20037;-76
2023/12/29 21:07:44;;;;;;;1999.90;999.90;;;12.00;99.90;;;;;;5053185;28;20029;-76
2023/12/29 21:10:10;;;;;;;1999.90;999.90;;;12.00;99.90;;;;;;5032023;28;20045;-75
2023/12/29 21:12:36;;;;;;;1999.90;999.90;;;12.00;99.90;;;;;;5033659;28;20053;-76
2023/12/29 21:15:01;;;;;;;1999.90;999.90;;;12.00;99.90;;;;;;5033239;28;20688;-76
2023/12/29 21:17:28;;;;;;;1999.90;999.90;;;12.00;99.90;;;;;;5033404;28;20405;-75
2023/12/29 21:19:54;;;;;;;1999.90;999.90;;;11.90;99.90;;;;;;5031739;28;20017;-77
2023/12/29 21:22:20;;;;;;;1999.90;999.90;;;11.90;99.90;;;;;;5036786;28;20031;-77
2023/12/29 21:24:45;;;;;;;1999.90;999.90;;;11.80;99.90;;;;;;5041520;28;20030;-77
2023/12/29 21:27:11;;;;;;;1999.90;999.90;;;11.70;99.90;;;;;;5051958;28;20029;-76
2023/12/29 21:29:37;;;;;;;1999.90;999.90;;;11.70;99.90;;;;;;5053399;28;20056;-76
2023/12/29 21:32:03;;;;;;;1999.90;999.90;;;11.60;99.90;;;;;;5053074;28;20035;-77
2023/12/29 21:34:28;;;;;;;1999.90;999.90;;;11.60;99.90;;;;;;5053168;28;20013;-76
2023/12/29 21:36:55;;;;;;;1999.90;999.90;;;11.60;99.90;;;;;;5052735;28;20025;-76
2023/12/29 21:39:21;;;;;;;1999.90;999.90;;;11.60;99.90;;;;;;5052835;28;20040;-77
2023/12/29 21:41:46;;;;;;;1999.90;999.90;;;11.50;99.90;;;;;;5052916;28;20491;-76
2023/12/29 21:44:12;;;;;;;1999.90;999.90;;;11.50;99.90;;;;;;5053021;28;20107;-76
2023/12/29 21:46:41;;;;;;;1999.90;999.90;;;11.50;99.90;;;;;;5034895;28;20029;-76
2023/12/29 21:49:08;;;;;;;1999.90;999.90;;;11.50;99.90;;;;;;5052880;28;20096;-77
2023/12/29 21:51:34;;;;;;;1999.90;999.90;;;11.50;99.90;;;;;;5052739;28;20025;-77
2023/12/29 21:54:00;;;;;;;1999.90;999.90;;;11.60;99.90;;;;;;5053031;28;20067;-77
2023/12/29 21:56:25;;;;;;;1999.90;999.90;;;11.60;99.90;;;;;;5052626;28;20037;-77
2023/12/29 21:58:51;;;;;;;1999.90;999.90;;;11.70;99.90;;;;;;5053014;28;20026;-77
2023/12/29 22:01:36;;;;;;;1999.90;999.90;;;11.70;99.90;;;;;;5052682;28;20025;-77
2023/12/29 22:04:03;;;;;;;1999.90;999.90;;;11.70;99.90;;;;;;5052435;28;20115;-77
2023/12/29 22:06:29;;;;;;;1999.90;999.90;;;11.70;99.90;;;;;;5052160;28;20018;-77
2023/12/29 22:08:56;;;;;;;1999.90;999.90;;;11.60;99.90;;;;;;5052386;28;20031;-77
2023/12/29 22:11:22;;;;;;;1999.90;999.90;;;11.60;99.90;;;;;;5052366;28;20036;-77
2023/12/29 22:13:48;;;;;;;1999.90;999.90;;;11.60;99.90;;;;;;5052373;28;20068;-76
2023/12/29 22:16:14;;;;;;;1999.90;999.90;;;11.60;99.90;;;;;;5052213;28;20053;-77
2023/12/29 22:18:40;;;;;;;1999.90;999.90;;;11.60;99.90;;;;;;5052240;28;20021;-76
2023/12/29 22:21:05;;;;;;;1999.90;999.90;;;11.60;99.90;;;;;;5030689;28;20498;-77
2023/12/29 22:23:31;;;;;;;1999.90;999.90;;;11.50;99.90;;;;;;5044005;28;20029;-77
2023/12/29 22:25:57;;;;;;;1999.90;999.90;;;11.50;99.90;;;;;;5041621;28;20040;-77
2023/12/29 22:28:22;;;;;;;1999.90;999.90;;;11.40;99.90;;;;;;5034479;28;20059;-77
2023/12/29 22:30:48;;;;;;;1999.90;999.90;;;11.40;99.90;;;;;;5052207;28;20033;-76
2023/12/29 22:33:14;;;;;;;1999.90;999.90;;;11.40;99.90;;;;;;5052144;28;20494;-77